createdAt,value
2017-09-30T00:01:06.157Z,34.90
2017-09-30T00:03:33.627Z,36.83
2017-09-30T00:06:01.086Z,35.70
2017-09-30T00:08:28.570Z,37.07
2017-09-30T00:10:56.027Z,35.20
2017-09-30T00:13:23.486Z,37.00
2017-09-30T00:15:50.998Z,36.40
2017-09-30T00:18:18.454Z,33.77
2017-09-30T00:20:45.918Z,35.47
2017-09-30T00:23:13.401Z,36.10
2017-09-30T00:25:40.859Z,35.20
2017-09-30T00:28:08.326Z,37.10
2017-09-30T00:30:35.806Z,37.57
2017-09-30T00:33:03.267Z,38.27
2017-09-30T00:35:30.730Z,36.33
2017-09-30T00:37:58.218Z,33.73
2017-09-30T00:40:25.710Z,38.13
2017-09-30T00:42:53.166Z,37.17
2017-09-30T00:45:20.650Z,36.47
2017-09-30T00:47:48.166Z,35.53
2017-09-30T00:50:15.622Z,35.90
2017-09-30T00:52:43.110Z,34.93
2017-09-30T00:55:10.578Z,35.50
2017-09-30T00:57:38.030Z,35.03
2017-09-30T01:00:05.526Z,34.87
2017-09-30T01:02:32.990Z,34.70
2017-09-30T01:05:00.447Z,35.23
2017-09-30T01:07:27.934Z,33.33
2017-09-30T01:09:55.390Z,33.40
2017-09-30T01:12:22.847Z,31.77
2017-09-30T01:14:50.354Z,34.10
2017-09-30T01:17:17.810Z,34.10
2017-09-30T01:19:45.270Z,34.30
2017-09-30T01:22:12.765Z,35.23
2017-09-30T01:24:40.231Z,32.73
2017-09-30T01:27:07.694Z,33.93
2017-09-30T01:29:35.181Z,33.20
2017-09-30T01:32:02.643Z,32.80
2017-09-30T01:34:30.106Z,31.43
2017-09-30T01:36:57.590Z,32.13
2017-09-30T01:39:25.179Z,32.70
2017-09-30T01:41:52.646Z,32.70
2017-09-30T01:44:20.137Z,31.77
2017-09-30T01:46:47.599Z,30.60
2017-09-30T01:49:15.064Z,32.37
2017-09-30T01:51:42.550Z,31.67
2017-09-30T01:54:10.005Z,32.60
2017-09-30T01:56:37.478Z,31.93
2017-09-30T01:59:04.970Z,32.17
2017-09-30T02:01:32.429Z,33.03
2017-09-30T02:03:59.886Z,32.00
2017-09-30T02:06:27.370Z,32.73
2017-09-30T02:08:54.830Z,31.80
2017-09-30T02:11:22.290Z,31.40
2017-09-30T02:13:49.775Z,33.70
2017-09-30T02:16:17.234Z,33.13
2017-09-30T02:18:44.696Z,34.30
2017-09-30T02:21:12.210Z,34.97
2017-09-30T02:23:39.666Z,30.93
2017-09-30T02:26:07.126Z,33.37
2017-09-30T02:28:34.605Z,35.30
2017-09-30T02:31:02.063Z,38.43
2017-09-30T02:33:29.522Z,34.17
2017-09-30T02:35:57.012Z,35.17
2017-09-30T02:38:24.472Z,36.90
2017-09-30T02:40:51.935Z,36.80
2017-09-30T02:43:19.415Z,36.27
2017-09-30T02:45:46.874Z,36.13
2017-09-30T02:48:14.334Z,38.20
2017-09-30T02:50:41.819Z,38.90
2017-09-30T02:53:09.274Z,35.10
2017-09-30T02:55:36.730Z,37.20
2017-09-30T02:58:04.211Z,36.67
2017-09-30T03:00:31.670Z,37.87
2017-09-30T03:02:59.151Z,38.20
2017-09-30T03:05:26.630Z,38.30
2017-09-30T03:07:54.086Z,38.77
2017-09-30T03:10:21.566Z,39.43
2017-09-30T03:12:49.023Z,40.10
2017-09-30T03:15:16.478Z,39.40
2017-09-30T03:17:43.953Z,40.00
2017-09-30T03:20:11.411Z,40.57
2017-09-30T03:22:38.871Z,39.33
2017-09-30T03:25:06.354Z,41.87
2017-09-30T03:27:33.814Z,40.27
2017-09-30T03:30:01.276Z,42.17
2017-09-30T03:32:28.758Z,40.20
2017-09-30T03:34:56.223Z,42.47
2017-09-30T03:37:23.679Z,40.47
2017-09-30T03:39:51.159Z,41.00
2017-09-30T03:42:18.646Z,41.57
2017-09-30T03:44:46.102Z,41.23
2017-09-30T03:47:13.596Z,38.30
2017-09-30T03:49:41.062Z,38.90
2017-09-30T03:52:08.527Z,37.53
2017-09-30T03:54:36.016Z,39.70
2017-09-30T03:57:03.479Z,39.67
2017-09-30T03:59:30.938Z,40.83
2017-09-30T04:01:58.416Z,38.93
2017-09-30T04:04:25.870Z,38.90
2017-09-30T04:06:53.332Z,41.50
2017-09-30T04:09:20.809Z,40.53
2017-09-30T04:11:48.282Z,42.83
2017-09-30T04:14:15.750Z,42.07
2017-09-30T04:16:43.235Z,40.87
2017-09-30T04:19:10.694Z,42.03
2017-09-30T04:21:38.155Z,42.47
2017-09-30T04:24:05.644Z,41.13
2017-09-30T04:26:33.129Z,42.20
2017-09-30T04:29:00.613Z,40.53
2017-09-30T04:31:28.099Z,41.27
2017-09-30T04:33:55.558Z,41.63
2017-09-30T04:36:23.015Z,41.23
2017-09-30T04:38:50.494Z,39.90
2017-09-30T04:41:17.959Z,39.43
2017-09-30T04:43:45.418Z,40.07
2017-09-30T04:46:12.902Z,41.10
2017-09-30T04:48:40.370Z,39.13
2017-09-30T04:51:07.866Z,40.20
2017-09-30T04:53:35.351Z,41.17
2017-09-30T04:56:02.818Z,41.77
2017-09-30T04:58:30.274Z,41.77
2017-09-30T05:00:57.783Z,43.83
2017-09-30T05:03:25.240Z,41.10
2017-09-30T05:05:52.693Z,43.30
2017-09-30T05:08:20.205Z,43.90
2017-09-30T05:10:47.687Z,42.27
2017-09-30T05:13:15.174Z,41.13
2017-09-30T05:15:42.665Z,41.40
2017-09-30T05:18:10.142Z,43.30
2017-09-30T05:20:37.602Z,42.20
2017-09-30T05:23:05.090Z,41.20
2017-09-30T05:25:32.598Z,41.40
2017-09-30T05:28:00.057Z,40.17
2017-09-30T05:30:27.562Z,42.93
2017-09-30T05:32:55.102Z,43.83
2017-09-30T05:35:22.566Z,43.40
2017-09-30T05:37:50.042Z,41.10
2017-09-30T05:40:17.503Z,41.97
2017-09-30T05:42:44.954Z,43.00
2017-09-30T05:45:12.454Z,44.07
2017-09-30T05:47:39.910Z,41.53
2017-09-30T05:50:07.367Z,39.77
2017-09-30T05:52:34.863Z,41.20
2017-09-30T05:55:02.329Z,40.67
2017-09-30T05:57:29.810Z,41.53
2017-09-30T05:59:57.366Z,39.60
2017-09-30T06:02:24.831Z,40.63
2017-09-30T06:04:52.283Z,39.90
2017-09-30T06:07:19.762Z,39.10
2017-09-30T06:09:47.218Z,37.33
2017-09-30T06:12:14.674Z,38.07
2017-09-30T06:14:42.149Z,40.60
2017-09-30T06:17:09.609Z,37.07
2017-09-30T06:19:37.103Z,37.40
2017-09-30T06:22:04.582Z,36.50
2017-09-30T06:24:32.038Z,37.77
2017-09-30T06:26:59.522Z,37.30
2017-09-30T06:29:26.988Z,37.87
2017-09-30T06:31:54.454Z,40.30
2017-09-30T06:34:21.946Z,39.07
2017-09-30T06:36:49.406Z,40.53
2017-09-30T06:39:16.858Z,37.30
2017-09-30T06:41:44.394Z,40.80
2017-09-30T06:44:11.854Z,39.27
2017-09-30T06:46:39.309Z,43.40
2017-09-30T06:49:06.795Z,42.20
2017-09-30T06:51:34.254Z,43.13
2017-09-30T06:54:01.714Z,40.47
2017-09-30T06:56:29.197Z,42.03
2017-09-30T06:58:56.663Z,38.27
2017-09-30T07:01:24.118Z,43.30
2017-09-30T07:03:51.601Z,39.30
2017-09-30T07:06:19.061Z,38.70
2017-09-30T07:08:46.515Z,39.80
2017-09-30T07:11:13.994Z,39.07
2017-09-30T07:13:41.454Z,39.20
2017-09-30T07:16:08.919Z,39.47
2017-09-30T07:18:36.409Z,36.90
2017-09-30T07:21:03.870Z,38.17
2017-09-30T07:23:31.330Z,39.10
2017-09-30T07:25:58.810Z,38.67
2017-09-30T07:28:26.287Z,38.70
2017-09-30T07:30:53.750Z,41.90
2017-09-30T07:33:21.225Z,39.70
2017-09-30T07:35:48.678Z,40.10
2017-09-30T07:38:16.166Z,37.33
2017-09-30T07:40:43.618Z,38.80
2017-09-30T07:43:11.083Z,34.37
2017-09-30T07:45:38.562Z,37.47
2017-09-30T07:48:06.024Z,36.17
2017-09-30T07:50:33.478Z,33.60
2017-09-30T07:53:00.954Z,32.70
2017-09-30T07:55:28.409Z,32.90
2017-09-30T07:57:55.865Z,33.80
2017-09-30T08:00:23.349Z,32.93
2017-09-30T08:02:50.810Z,34.90
2017-09-30T08:05:18.314Z,32.87
2017-09-30T08:07:45.796Z,33.37
2017-09-30T08:10:13.265Z,35.90
2017-09-30T08:12:40.746Z,32.90
2017-09-30T08:15:08.208Z,33.40
2017-09-30T08:17:35.674Z,32.80
2017-09-30T08:20:03.154Z,33.17
2017-09-30T08:22:30.605Z,32.23
2017-09-30T08:24:58.057Z,35.40
2017-09-30T08:27:25.558Z,34.07
2017-09-30T08:29:53.018Z,33.77
2017-09-30T08:32:20.511Z,35.10
2017-09-30T08:34:47.993Z,35.60
2017-09-30T08:37:15.454Z,33.90
2017-09-30T08:39:42.915Z,33.17
2017-09-30T08:42:10.420Z,32.50
2017-09-30T08:44:37.878Z,32.37
2017-09-30T08:47:05.334Z,31.33
2017-09-30T08:49:32.823Z,31.83
2017-09-30T08:52:00.274Z,29.97
2017-09-30T08:54:27.729Z,31.03
2017-09-30T08:56:55.213Z,30.90
2017-09-30T08:59:22.672Z,29.30
2017-09-30T09:01:50.134Z,30.53
2017-09-30T09:04:17.613Z,30.87
2017-09-30T09:06:45.075Z,30.83
2017-09-30T09:09:12.542Z,36.63
2017-09-30T09:11:40.034Z,35.63
2017-09-30T09:14:07.486Z,33.83
2017-09-30T09:16:34.945Z,31.80
2017-09-30T09:19:02.422Z,30.50
2017-09-30T09:21:29.906Z,30.03
2017-09-30T09:23:57.382Z,29.43
2017-09-30T09:26:24.879Z,27.67
2017-09-30T09:28:52.353Z,29.73
2017-09-30T09:31:19.810Z,26.20
2017-09-30T09:33:47.289Z,27.27
2017-09-30T09:36:14.746Z,27.20
2017-09-30T09:38:42.207Z,25.37
2017-09-30T09:41:09.693Z,29.53
2017-09-30T09:43:37.149Z,23.37
2017-09-30T09:46:04.609Z,25.37
2017-09-30T09:48:32.099Z,25.50
2017-09-30T09:50:59.554Z,26.60
2017-09-30T09:53:27.019Z,26.87
2017-09-30T09:55:54.506Z,23.67
2017-09-30T09:58:21.969Z,25.50
2017-09-30T10:00:49.433Z,23.37
2017-09-30T10:03:16.919Z,26.10
2017-09-30T10:05:44.386Z,26.00
2017-09-30T10:08:11.843Z,24.50
2017-09-30T10:10:39.327Z,23.90
2017-09-30T10:13:06.791Z,28.47
2017-09-30T10:15:34.271Z,27.23
2017-09-30T10:18:01.754Z,26.47
2017-09-30T10:20:29.214Z,23.90
2017-09-30T10:22:56.674Z,21.17
2017-09-30T10:25:24.161Z,18.30
2017-09-30T10:27:51.618Z,20.90
2017-09-30T10:30:19.078Z,19.37
2017-09-30T10:32:46.566Z,14.57
2017-09-30T10:35:14.025Z,13.40
2017-09-30T10:37:41.486Z,13.60
2017-09-30T10:40:08.978Z,11.67
2017-09-30T10:42:36.443Z,12.47
2017-09-30T10:45:03.923Z,12.53
2017-09-30T10:47:31.410Z,11.70
2017-09-30T10:49:58.894Z,12.70
2017-09-30T10:52:26.355Z,12.70
2017-09-30T10:54:53.811Z,11.83
2017-09-30T10:57:21.294Z,11.37
2017-09-30T10:59:48.753Z,11.83
2017-09-30T11:02:16.212Z,11.33
2017-09-30T11:04:43.698Z,11.67
2017-09-30T11:07:11.173Z,12.27
2017-09-30T11:09:38.647Z,11.57
2017-09-30T11:12:06.130Z,12.80
2017-09-30T11:14:33.590Z,12.17
2017-09-30T11:17:01.047Z,11.63
2017-09-30T11:19:28.535Z,12.33
2017-09-30T11:21:55.988Z,11.57
2017-09-30T11:24:23.483Z,12.00
2017-09-30T11:26:51.003Z,11.43
2017-09-30T11:29:18.485Z,12.10
2017-09-30T11:31:46.017Z,12.50
2017-09-30T11:34:13.497Z,12.80
2017-09-30T11:36:40.949Z,12.87
2017-09-30T11:39:08.406Z,12.40
2017-09-30T11:41:35.887Z,12.10
2017-09-30T11:44:03.346Z,12.67
2017-09-30T11:46:30.811Z,12.03
2017-09-30T11:48:58.298Z,11.40
2017-09-30T11:51:25.778Z,11.90
2017-09-30T11:53:53.270Z,12.00
2017-09-30T11:56:20.753Z,12.87
2017-09-30T11:58:48.214Z,11.50
2017-09-30T12:01:15.670Z,11.70
2017-09-30T12:03:43.155Z,11.70
2017-09-30T12:06:10.638Z,10.90
2017-09-30T12:08:38.099Z,11.57
2017-09-30T12:11:05.586Z,11.50
2017-09-30T12:13:33.699Z,11.37
2017-09-30T12:16:01.184Z,11.00
2017-09-30T12:18:28.744Z,12.17
2017-09-30T12:20:56.228Z,11.17
2017-09-30T12:23:23.710Z,12.60
2017-09-30T12:25:51.230Z,13.43
2017-09-30T12:28:18.739Z,13.50
2017-09-30T12:30:46.327Z,12.67
2017-09-30T12:33:13.813Z,12.60
2017-09-30T12:35:41.279Z,13.93
2017-09-30T12:38:08.742Z,13.90
2017-09-30T12:40:36.225Z,14.13
2017-09-30T12:43:03.690Z,14.20
2017-09-30T12:45:31.147Z,14.70
2017-09-30T12:47:58.670Z,13.63
2017-09-30T12:50:26.130Z,16.37
2017-09-30T12:52:53.583Z,16.17
2017-09-30T12:55:21.062Z,16.07
2017-09-30T12:57:48.604Z,17.20
2017-09-30T13:00:16.069Z,16.60
2017-09-30T13:02:43.546Z,16.93
2017-09-30T13:05:11.007Z,16.00
2017-09-30T13:07:38.470Z,15.67
2017-09-30T13:10:05.950Z,15.00
2017-09-30T13:12:33.410Z,16.67
2017-09-30T13:15:00.874Z,16.40
2017-09-30T13:17:28.361Z,16.30
2017-09-30T13:19:55.822Z,17.10
2017-09-30T13:22:23.286Z,18.40
2017-09-30T13:24:50.766Z,18.87
2017-09-30T13:27:18.222Z,16.70
2017-09-30T13:29:45.678Z,18.37
2017-09-30T13:32:13.158Z,18.10
2017-09-30T13:34:40.617Z,17.97
2017-09-30T13:37:08.075Z,17.60
2017-09-30T13:39:35.554Z,19.00
2017-09-30T13:42:03.015Z,16.53
2017-09-30T13:44:30.473Z,19.87
2017-09-30T13:46:57.958Z,18.30
2017-09-30T13:49:25.425Z,17.27
2017-09-30T13:51:52.888Z,16.93
2017-09-30T13:54:20.370Z,16.07
2017-09-30T13:56:47.825Z,18.17
2017-09-30T13:59:15.282Z,17.13
2017-09-30T14:01:42.767Z,16.40
2017-09-30T14:04:10.229Z,19.13
2017-09-30T14:06:37.694Z,18.10
2017-09-30T14:09:05.178Z,18.03
2017-09-30T14:11:32.634Z,17.60
2017-09-30T14:14:00.109Z,17.40
2017-09-30T14:16:27.593Z,18.83
2017-09-30T14:18:55.054Z,17.20
2017-09-30T14:21:22.514Z,17.37
2017-09-30T14:23:49.994Z,18.73
2017-09-30T14:26:17.455Z,19.60
2017-09-30T14:28:44.912Z,18.60
2017-09-30T14:31:12.398Z,17.00
2017-09-30T14:33:39.860Z,18.70
2017-09-30T14:36:07.326Z,18.40
2017-09-30T14:38:34.802Z,19.10
2017-09-30T14:41:02.258Z,18.40
2017-09-30T14:43:29.717Z,18.77
2017-09-30T14:45:57.202Z,20.30
2017-09-30T14:48:24.662Z,20.47
2017-09-30T14:50:52.119Z,20.70
2017-09-30T14:53:19.606Z,20.30
2017-09-30T14:55:47.069Z,19.93
2017-09-30T14:58:14.530Z,18.27
2017-09-30T15:00:42.014Z,18.70
2017-09-30T15:03:09.475Z,18.17
2017-09-30T15:05:36.931Z,18.70
2017-09-30T15:08:04.525Z,17.63
2017-09-30T15:10:31.989Z,17.33
2017-09-30T15:12:59.451Z,11.33
2017-09-30T15:15:26.939Z,11.40
2017-09-30T15:17:54.394Z,9.20
2017-09-30T15:20:21.852Z,9.63
2017-09-30T15:22:49.340Z,10.30
2017-09-30T15:25:16.789Z,8.10
2017-09-30T15:27:44.250Z,8.17
2017-09-30T15:30:11.729Z,7.60
2017-09-30T15:32:39.183Z,8.77
2017-09-30T15:35:06.638Z,9.13
2017-09-30T15:37:34.114Z,8.93
2017-09-30T15:40:01.569Z,9.73
2017-09-30T15:42:29.053Z,9.60
2017-09-30T15:44:56.531Z,9.90
2017-09-30T15:47:23.986Z,8.73
2017-09-30T15:49:51.463Z,7.43
2017-09-30T15:52:18.938Z,7.50
2017-09-30T15:54:46.390Z,7.20
2017-09-30T15:57:13.839Z,6.40
2017-09-30T16:02:23.326Z,5.67
2017-09-30T16:04:50.798Z,6.23
2017-09-30T16:07:18.246Z,6.00
2017-09-30T16:09:45.698Z,5.80
2017-09-30T16:12:13.170Z,5.13
2017-09-30T16:14:40.619Z,6.10
2017-09-30T16:17:08.061Z,5.93
2017-09-30T16:19:35.534Z,5.03
2017-09-30T16:22:02.978Z,5.90
2017-09-30T16:24:30.419Z,5.23
2017-09-30T16:26:57.890Z,6.07
2017-09-30T16:29:25.338Z,5.60
2017-09-30T16:32:02.266Z,6.20
2017-09-30T16:34:29.773Z,5.77
2017-09-30T16:36:57.254Z,6.33
2017-09-30T16:39:24.726Z,5.10
2017-09-30T16:41:52.183Z,5.30
2017-09-30T16:44:19.666Z,6.00
2017-09-30T16:46:47.136Z,5.27
2017-09-30T16:49:14.586Z,5.80
2017-09-30T16:51:42.073Z,5.30
2017-09-30T16:54:09.547Z,6.20
2017-09-30T16:56:37.002Z,5.77
2017-09-30T16:59:04.479Z,6.40
2017-09-30T17:01:31.929Z,5.80
2017-09-30T17:03:59.382Z,5.73
2017-09-30T17:06:26.878Z,5.83
2017-09-30T17:08:54.351Z,5.87
2017-09-30T17:11:21.807Z,5.50
2017-09-30T17:13:49.279Z,5.80
2017-09-30T17:16:16.741Z,5.47
2017-09-30T17:18:44.347Z,4.97
2017-09-30T17:21:11.808Z,4.83
2017-09-30T17:23:39.338Z,5.00
2017-09-30T17:26:06.799Z,5.13
2017-09-30T17:28:34.267Z,4.83
2017-09-30T17:31:01.750Z,4.70
2017-09-30T17:33:29.202Z,6.20
2017-09-30T17:35:56.669Z,5.50
2017-09-30T17:38:24.146Z,4.30
2017-09-30T17:40:51.599Z,5.47
2017-09-30T17:43:19.046Z,4.67
2017-09-30T17:45:46.530Z,5.10
2017-09-30T17:48:13.978Z,4.83
2017-09-30T17:50:41.431Z,5.87
2017-09-30T17:53:08.972Z,5.00
2017-09-30T17:55:36.422Z,5.40
2017-09-30T17:58:03.870Z,4.70
2017-09-30T18:00:31.347Z,5.17
2017-09-30T18:02:59.139Z,5.67
2017-09-30T18:05:26.598Z,5.87
2017-09-30T18:07:54.072Z,4.77
2017-09-30T18:10:21.550Z,4.90
2017-09-30T18:12:49.007Z,5.10
2017-09-30T18:15:16.482Z,5.07
2017-09-30T18:17:43.934Z,5.60
2017-09-30T18:20:11.386Z,5.57
2017-09-30T18:22:38.857Z,5.33
2017-09-30T18:25:06.306Z,5.87
2017-09-30T18:27:33.774Z,5.87
2017-09-30T18:30:01.249Z,5.70
2017-09-30T18:32:28.707Z,6.30
2017-09-30T18:34:56.187Z,5.30
2017-09-30T18:37:24.659Z,5.40
2017-09-30T18:39:52.107Z,5.90
2017-09-30T18:42:19.582Z,5.67
2017-09-30T18:44:47.036Z,6.07
2017-09-30T18:47:14.486Z,5.60
2017-09-30T18:49:41.981Z,5.50
2017-09-30T18:52:09.434Z,5.10
2017-09-30T18:54:36.891Z,5.67
2017-09-30T18:57:05.214Z,6.00
2017-09-30T18:59:32.670Z,5.87
2017-09-30T19:02:00.150Z,6.90
2017-09-30T19:04:27.602Z,5.47
2017-09-30T19:06:55.079Z,5.70
2017-09-30T19:09:22.534Z,5.30
2017-09-30T19:11:50.007Z,5.27
2017-09-30T19:14:17.455Z,5.13
2017-09-30T19:16:44.926Z,4.93
2017-09-30T19:19:12.425Z,6.00
2017-09-30T19:21:39.890Z,5.90
2017-09-30T19:24:07.350Z,6.90
2017-09-30T19:26:34.830Z,5.87
2017-09-30T19:29:02.286Z,6.10
2017-09-30T19:31:29.742Z,6.23
2017-09-30T19:33:57.214Z,6.00
2017-09-30T19:36:24.675Z,6.13
2017-09-30T19:38:53.160Z,5.60
2017-09-30T19:41:20.649Z,7.07
2017-09-30T19:43:48.121Z,5.83
2017-09-30T19:46:15.585Z,6.63
2017-09-30T19:48:43.070Z,7.10
2017-09-30T19:51:10.619Z,7.50
2017-09-30T19:53:38.091Z,5.80
2017-09-30T19:56:05.551Z,6.87
2017-09-30T19:58:33.527Z,6.40
2017-09-30T20:01:01.010Z,6.87
2017-09-30T20:03:28.459Z,6.93
2017-09-30T20:05:56.085Z,7.13
2017-09-30T20:08:23.570Z,6.27
2017-09-30T20:10:51.052Z,6.40
2017-09-30T20:13:18.531Z,6.43
2017-09-30T20:15:45.983Z,6.30
2017-09-30T20:18:13.436Z,6.63
2017-09-30T20:20:40.923Z,6.00
2017-09-30T20:23:08.374Z,7.30
2017-09-30T20:25:36.655Z,5.50
2017-09-30T20:28:04.146Z,6.77
2017-09-30T20:30:31.610Z,6.13
2017-09-30T20:32:59.098Z,5.90
2017-09-30T20:35:26.574Z,5.73
2017-09-30T20:37:54.027Z,6.77
2017-09-30T20:40:21.495Z,6.00
2017-09-30T20:42:50.709Z,6.53
2017-09-30T20:45:18.826Z,6.73
2017-09-30T20:47:46.282Z,7.40
2017-09-30T20:50:13.815Z,6.60
2017-09-30T20:52:41.299Z,8.07
2017-09-30T20:55:08.870Z,8.30
2017-09-30T20:57:36.338Z,6.53
2017-09-30T21:00:03.810Z,7.80
2017-09-30T21:02:31.901Z,7.97
2017-09-30T21:04:59.375Z,6.40
2017-09-30T21:07:26.827Z,7.63
2017-09-30T21:09:54.438Z,7.63
2017-09-30T21:12:21.898Z,8.13
2017-09-30T21:14:49.363Z,7.97
2017-09-30T21:17:16.850Z,8.50
2017-09-30T21:19:46.058Z,8.30
2017-09-30T21:22:13.574Z,8.73
2017-09-30T21:24:41.035Z,9.30
2017-09-30T21:27:09.717Z,9.10
2017-09-30T21:29:37.198Z,8.80
2017-09-30T21:32:08.031Z,8.90
2017-09-30T21:34:38.642Z,9.10
2017-09-30T21:37:08.739Z,9.67
2017-09-30T21:39:39.151Z,9.53
2017-09-30T21:42:06.890Z,9.97
2017-09-30T21:44:34.844Z,9.90
2017-09-30T21:47:02.550Z,9.63
2017-09-30T21:49:30.026Z,9.93
2017-09-30T21:51:57.531Z,10.67
2017-09-30T21:54:29.712Z,10.90
2017-09-30T21:56:59.829Z,10.07
2017-09-30T21:59:27.290Z,11.10
2017-09-30T22:01:54.750Z,10.27
2017-09-30T22:04:39.298Z,10.77
2017-09-30T22:07:06.827Z,10.53
2017-09-30T22:09:36.179Z,10.07
2017-09-30T22:12:03.666Z,11.10
2017-09-30T22:14:31.126Z,10.87
2017-09-30T22:16:58.587Z,11.20
2017-09-30T22:19:26.079Z,10.90
2017-09-30T22:21:53.530Z,9.33
2017-09-30T22:24:20.991Z,9.77
2017-09-30T22:26:48.474Z,10.17
2017-09-30T22:29:15.963Z,9.70
2017-09-30T22:31:43.427Z,10.50
2017-09-30T22:34:10.915Z,10.20
2017-09-30T22:36:44.997Z,10.40
2017-09-30T22:39:12.478Z,9.03
2017-09-30T22:41:39.942Z,9.93
2017-09-30T22:44:07.559Z,10.40
2017-09-30T22:46:35.075Z,11.07
2017-09-30T22:49:02.542Z,10.43
2017-09-30T22:51:30.003Z,10.30
2017-09-30T22:53:57.488Z,9.20
2017-09-30T22:56:24.953Z,11.00
2017-09-30T22:58:52.410Z,11.17
2017-09-30T23:01:19.891Z,9.83
2017-09-30T23:03:47.363Z,10.97
2017-09-30T23:06:14.844Z,11.63
2017-09-30T23:08:42.334Z,10.57
2017-09-30T23:11:09.811Z,11.03
2017-09-30T23:13:37.271Z,11.17
2017-09-30T23:16:04.766Z,11.20
2017-09-30T23:18:32.230Z,10.10
2017-09-30T23:20:59.691Z,10.10
2017-09-30T23:23:27.175Z,10.03
2017-09-30T23:25:54.673Z,9.60
2017-09-30T23:28:22.141Z,9.87
2017-09-30T23:30:49.619Z,9.97
2017-09-30T23:33:17.072Z,9.23
2017-09-30T23:35:44.534Z,10.10
2017-09-30T23:38:12.012Z,8.70
2017-09-30T23:40:39.476Z,9.00
2017-09-30T23:43:06.938Z,8.90
2017-09-30T23:45:34.410Z,7.67
2017-09-30T23:48:01.858Z,8.40
2017-09-30T23:50:29.310Z,7.20
2017-09-30T23:52:56.858Z,8.37
2017-09-30T23:55:24.328Z,7.63
2017-09-30T23:57:51.783Z,7.63
